sensor_id;sensor_type;location;lat;lon;timestamp;pressure;altitude;pressure_sealevel;temperature;humidity
61674;BME280;47573;43.832;5.974;2023-12-07T00:03:31;95168.19;;;21.68;64.91
61674;BME280;47573;43.832;5.974;2023-12-07T00:10:12;95180.00;;;21.62;65.02
61674;BME280;47573;43.832;5.974;2023-12-07T00:16:54;95175.53;;;21.56;65.05
61674;BME280;47573;43.832;5.974;2023-12-07T00:23:35;95176.47;;;21.50;64.89
61674;BME280;47573;43.832;5.974;2023-12-07T00:30:16;95193.22;;;21.47;64.79
61674;BME280;47573;43.832;5.974;2023-12-07T00:36:58;95190.88;;;21.39;64.63
61674;BME280;47573;43.832;5.974;2023-12-07T00:43:39;95202.44;;;21.34;64.40
61674;BME280;47573;43.832;5.974;2023-12-07T00:50:20;95197.34;;;21.26;64.28
61674;BME280;47573;43.832;5.974;2023-12-07T00:57:02;95212.00;;;21.25;64.31
61674;BME280;47573;43.832;5.974;2023-12-07T01:03:43;95207.28;;;21.21;64.32
61674;BME280;47573;43.832;5.974;2023-12-07T01:10:24;95205.50;;;21.15;64.37
61674;BME280;47573;43.832;5.974;2023-12-07T01:17:06;95200.97;;;21.09;64.37
61674;BME280;47573;43.832;5.974;2023-12-07T01:23:46;95187.31;;;21.04;63.98
61674;BME280;47573;43.832;5.974;2023-12-07T01:30:27;95205.09;;;21.00;63.71
61674;BME280;47573;43.832;5.974;2023-12-07T01:37:09;95210.38;;;20.95;63.73
61674;BME280;47573;43.832;5.974;2023-12-07T01:43:50;95207.06;;;20.93;63.44
61674;BME280;47573;43.832;5.974;2023-12-07T01:50:30;95201.53;;;20.88;63.39
61674;BME280;47573;43.832;5.974;2023-12-07T01:57:13;95197.63;;;20.83;63.28
61674;BME280;47573;43.832;5.974;2023-12-07T02:03:54;95185.00;;;20.77;62.94
61674;BME280;47573;43.832;5.974;2023-12-07T02:10:35;95188.16;;;20.74;62.65
61674;BME280;47573;43.832;5.974;2023-12-07T02:17:19;95180.94;;;20.68;62.64
61674;BME280;47573;43.832;5.974;2023-12-07T02:24:02;95178.69;;;20.65;62.55
61674;BME280;47573;43.832;5.974;2023-12-07T02:30:45;95162.88;;;20.62;62.62
61674;BME280;47573;43.832;5.974;2023-12-07T02:37:28;95169.41;;;20.73;61.63
61674;BME280;47573;43.832;5.974;2023-12-07T02:44:09;95168.75;;;20.59;62.29
61674;BME280;47573;43.832;5.974;2023-12-07T02:50:51;95172.63;;;20.52;62.31
61674;BME280;47573;43.832;5.974;2023-12-07T02:57:32;95172.72;;;20.45;62.58
61674;BME280;47573;43.832;5.974;2023-12-07T03:04:14;95170.47;;;20.42;62.64
61674;BME280;47573;43.832;5.974;2023-12-07T03:10:56;95183.91;;;20.37;62.76
61674;BME280;47573;43.832;5.974;2023-12-07T03:17:36;95182.13;;;20.31;62.77
61674;BME280;47573;43.832;5.974;2023-12-07T03:24:17;95179.84;;;20.28;62.64
61674;BME280;47573;43.832;5.974;2023-12-07T03:30:59;95179.72;;;20.23;62.76
61674;BME280;47573;43.832;5.974;2023-12-07T03:37:39;95155.97;;;20.19;62.67
61674;BME280;47573;43.832;5.974;2023-12-07T03:44:20;95154.53;;;20.16;62.49
61674;BME280;47573;43.832;5.974;2023-12-07T03:51:03;95163.16;;;20.13;62.66
61674;BME280;47573;43.832;5.974;2023-12-07T03:57:43;95163.00;;;20.08;62.77
61674;BME280;47573;43.832;5.974;2023-12-07T04:04:24;95171.56;;;20.05;62.77
61674;BME280;47573;43.832;5.974;2023-12-07T04:11:06;95170.38;;;20.01;62.58
61674;BME280;47573;43.832;5.974;2023-12-07T04:17:47;95172.97;;;19.96;62.51
61674;BME280;47573;43.832;5.974;2023-12-07T04:24:28;95170.69;;;19.93;62.40
61674;BME280;47573;43.832;5.974;2023-12-07T04:31:10;95157.63;;;19.90;62.41
61674;BME280;47573;43.832;5.974;2023-12-07T04:37:51;95168.28;;;19.85;62.50
61674;BME280;47573;43.832;5.974;2023-12-07T04:44:31;95182.31;;;19.82;62.47
61674;BME280;47573;43.832;5.974;2023-12-07T04:51:13;95166.50;;;19.79;62.45
61674;BME280;47573;43.832;5.974;2023-12-07T04:57:54;95187.56;;;19.77;62.30
61674;BME280;47573;43.832;5.974;2023-12-07T05:04:35;95191.31;;;19.76;62.23
61674;BME280;47573;43.832;5.974;2023-12-07T05:11:17;95178.84;;;19.75;61.88
61674;BME280;47573;43.832;5.974;2023-12-07T05:17:57;95187.41;;;19.72;61.80
61674;BME280;47573;43.832;5.974;2023-12-07T05:24:38;95188.31;;;19.66;62.06
61674;BME280;47573;43.832;5.974;2023-12-07T05:31:20;95188.53;;;19.64;62.00
61674;BME280;47573;43.832;5.974;2023-12-07T05:38:01;95194.19;;;19.63;61.91
61674;BME280;47573;43.832;5.974;2023-12-07T05:44:41;95194.63;;;19.60;61.76
61674;BME280;47573;43.832;5.974;2023-12-07T05:51:23;95199.44;;;19.58;61.70
61674;BME280;47573;43.832;5.974;2023-12-07T05:58:05;95195.53;;;19.54;61.80
61674;BME280;47573;43.832;5.974;2023-12-07T06:04:45;95205.16;;;19.50;61.85
61674;BME280;47573;43.832;5.974;2023-12-07T06:11:27;95210.78;;;19.48;61.67
61674;BME280;47573;43.832;5.974;2023-12-07T06:18:08;95225.38;;;19.47;61.69
61674;BME280;47573;43.832;5.974;2023-12-07T06:24:49;95243.56;;;19.40;61.94
61674;BME280;47573;43.832;5.974;2023-12-07T06:31:31;95250.63;;;19.41;61.71
61674;BME280;47573;43.832;5.974;2023-12-07T06:38:12;95252.38;;;19.36;61.65
61674;BME280;47573;43.832;5.974;2023-12-07T06:44:53;95245.28;;;19.35;62.01
61674;BME280;47573;43.832;5.974;2023-12-07T06:51:35;95232.75;;;19.40;61.53
61674;BME280;47573;43.832;5.974;2023-12-07T06:58:15;95226.50;;;19.40;61.50
61674;BME280;47573;43.832;5.974;2023-12-07T07:04:56;95239.44;;;19.38;61.58
61674;BME280;47573;43.832;5.974;2023-12-07T07:11:38;95234.63;;;19.40;61.46
61674;BME280;47573;43.832;5.974;2023-12-07T07:18:19;95241.84;;;19.46;61.06
61674;BME280;47573;43.832;5.974;2023-12-07T07:25:01;95252.38;;;19.54;61.00
61674;BME280;47573;43.832;5.974;2023-12-07T07:31:43;95255.63;;;19.44;61.00
61674;BME280;47573;43.832;5.974;2023-12-07T07:38:23;95268.03;;;19.52;61.36
61674;BME280;47573;43.832;5.974;2023-12-07T07:45:05;95271.81;;;19.51;61.45
61674;BME280;47573;43.832;5.974;2023-12-07T07:51:47;95263.00;;;19.55;61.11
61674;BME280;47573;43.832;5.974;2023-12-07T07:58:28;95262.94;;;19.62;60.77
61674;BME280;47573;43.832;5.974;2023-12-07T08:05:08;95240.84;;;19.65;60.79
61674;BME280;47573;43.832;5.974;2023-12-07T08:11:51;95245.34;;;19.71;60.49
61674;BME280;47573;43.832;5.974;2023-12-07T08:18:31;95232.34;;;19.79;59.95
61674;BME280;47573;43.832;5.974;2023-12-07T08:25:12;95218.19;;;19.77;60.07
61674;BME280;47573;43.832;5.974;2023-12-07T08:31:54;95204.84;;;19.76;59.98
61674;BME280;47573;43.832;5.974;2023-12-07T08:38:34;95212.25;;;19.87;60.68
61674;BME280;47573;43.832;5.974;2023-12-07T08:45:15;95221.34;;;19.92;60.45
61674;BME280;47573;43.832;5.974;2023-12-07T08:51:58;95222.94;;;20.00;59.91
61674;BME280;47573;43.832;5.974;2023-12-07T08:58:38;95242.50;;;20.02;59.79
61674;BME280;47573;43.832;5.974;2023-12-07T09:05:19;95256.19;;;20.07;59.70
61674;BME280;47573;43.832;5.974;2023-12-07T09:12:01;95254.41;;;20.19;59.10
61674;BME280;47573;43.832;5.974;2023-12-07T09:18:42;95243.13;;;20.22;58.52
61674;BME280;47573;43.832;5.974;2023-12-07T09:25:25;95237.63;;;20.29;58.29
61674;BME280;47573;43.832;5.974;2023-12-07T09:32:11;95242.81;;;20.30;58.02
61674;BME280;47573;43.832;5.974;2023-12-07T09:38:53;95273.31;;;20.26;58.06
61674;BME280;47573;43.832;5.974;2023-12-07T09:45:33;95265.84;;;20.39;57.78
61674;BME280;47573;43.832;5.974;2023-12-07T09:52:16;95264.09;;;20.45;57.18
61674;BME280;47573;43.832;5.974;2023-12-07T09:58:57;95236.91;;;20.51;56.96
61674;BME280;47573;43.832;5.974;2023-12-07T10:06:02;95221.38;;;20.58;56.29
61674;BME280;47573;43.832;5.974;2023-12-07T10:12:48;95218.78;;;20.63;56.12
61674;BME280;47573;43.832;5.974;2023-12-07T10:19:31;95238.38;;;20.65;56.02
61674;BME280;47573;43.832;5.974;2023-12-07T10:26:12;95233.41;;;20.62;56.20
61674;BME280;47573;43.832;5.974;2023-12-07T10:32:54;95233.88;;;20.59;56.10
61674;BME280;47573;43.832;5.974;2023-12-07T10:39:35;95251.34;;;20.63;55.90
61674;BME280;47573;43.832;5.974;2023-12-07T10:46:16;95252.16;;;20.64;55.87
61674;BME280;47573;43.832;5.974;2023-12-07T10:53:04;95247.50;;;20.71;55.53
61674;BME280;47573;43.832;5.974;2023-12-07T10:59:45;95229.53;;;20.70;55.52
61674;BME280;47573;43.832;5.974;2023-12-07T11:06:27;95219.97;;;20.67;55.50
61674;BME280;47573;43.832;5.974;2023-12-07T11:13:14;95205.38;;;20.68;55.25
61674;BME280;47573;43.832;5.974;2023-12-07T11:19:57;95191.19;;;20.66;55.32
61674;BME280;47573;43.832;5.974;2023-12-07T11:26:38;95186.97;;;20.70;55.25
61674;BME280;47573;43.832;5.974;2023-12-07T11:33:28;95180.59;;;20.65;55.35
61674;BME280;47573;43.832;5.974;2023-12-07T11:40:09;95182.47;;;20.64;55.17
61674;BME280;47573;43.832;5.974;2023-12-07T11:46:50;95174.91;;;20.66;55.11
61674;BME280;47573;43.832;5.974;2023-12-07T11:53:33;95158.06;;;20.64;55.31
61674;BME280;47573;43.832;5.974;2023-12-07T12:00:14;95156.88;;;20.60;55.05
61674;BME280;47573;43.832;5.974;2023-12-07T12:06:56;95150.47;;;20.55;55.93
61674;BME280;47573;43.832;5.974;2023-12-07T12:13:38;95155.09;;;20.54;57.11
61674;BME280;47573;43.832;5.974;2023-12-07T12:20:19;95164.53;;;20.63;58.13
61674;BME280;47573;43.832;5.974;2023-12-07T12:27:00;95159.34;;;20.73;58.74
61674;BME280;47573;43.832;5.974;2023-12-07T12:33:43;95161.75;;;20.81;59.14
61674;BME280;47573;43.832;5.974;2023-12-07T12:40:23;95152.19;;;20.91;59.58
61674;BME280;47573;43.832;5.974;2023-12-07T12:47:08;95151.25;;;20.97;60.03
61674;BME280;47573;43.832;5.974;2023-12-07T12:53:50;95135.25;;;21.07;60.43
61674;BME280;47573;43.832;5.974;2023-12-07T13:00:31;95146.69;;;21.09;60.76
61674;BME280;47573;43.832;5.974;2023-12-07T13:07:15;95155.81;;;21.14;61.16
61674;BME280;47573;43.832;5.974;2023-12-07T13:13:57;95175.28;;;21.23;61.56
61674;BME280;47573;43.832;5.974;2023-12-07T13:20:39;95179.06;;;21.33;61.75
61674;BME280;47573;43.832;5.974;2023-12-07T13:27:19;95158.75;;;21.36;62.74
61674;BME280;47573;43.832;5.974;2023-12-07T13:34:01;95166.56;;;21.44;63.21
61674;BME280;47573;43.832;5.974;2023-12-07T13:40:42;95178.59;;;21.48;62.14
61674;BME280;47573;43.832;5.974;2023-12-07T13:47:23;95182.13;;;21.37;62.46
61674;BME280;47573;43.832;5.974;2023-12-07T13:54:10;95182.59;;;21.34;62.44
61674;BME280;47573;43.832;5.974;2023-12-07T14:00:51;95183.06;;;21.31;62.33
61674;BME280;47573;43.832;5.974;2023-12-07T14:07:31;95178.09;;;21.28;62.30
61674;BME280;47573;43.832;5.974;2023-12-07T14:14:14;95149.31;;;21.27;62.23
61674;BME280;47573;43.832;5.974;2023-12-07T14:20:55;95148.59;;;21.20;62.25
61674;BME280;47573;43.832;5.974;2023-12-07T14:27:35;95156.63;;;21.15;61.80
61674;BME280;47573;43.832;5.974;2023-12-07T14:34:17;95142.47;;;21.13;61.97
61674;BME280;47573;43.832;5.974;2023-12-07T14:40:59;95137.50;;;21.10;61.80
61674;BME280;47573;43.832;5.974;2023-12-07T14:47:39;95142.34;;;21.08;61.70
61674;BME280;47573;43.832;5.974;2023-12-07T14:54:21;95142.66;;;21.00;62.06
61674;BME280;47573;43.832;5.974;2023-12-07T15:01:02;95135.97;;;21.02;61.43
61674;BME280;47573;43.832;5.974;2023-12-07T15:07:43;95127.59;;;21.04;61.22
61674;BME280;47573;43.832;5.974;2023-12-07T15:14:25;95119.28;;;20.99;61.16
61674;BME280;47573;43.832;5.974;2023-12-07T15:21:06;95140.19;;;20.98;60.95
61674;BME280;47573;43.832;5.974;2023-12-07T15:27:47;95145.22;;;20.95;61.13
61674;BME280;47573;43.832;5.974;2023-12-07T15:34:29;95149.47;;;20.91;61.10
61674;BME280;47573;43.832;5.974;2023-12-07T15:41:09;95155.84;;;20.84;61.22
61674;BME280;47573;43.832;5.974;2023-12-07T15:47:50;95160.81;;;20.88;60.88
61674;BME280;47573;43.832;5.974;2023-12-07T15:54:32;95166.00;;;20.77;61.08
61674;BME280;47573;43.832;5.974;2023-12-07T16:01:13;95169.75;;;20.76;60.71
61674;BME280;47573;43.832;5.974;2023-12-07T16:07:54;95168.81;;;20.82;61.07
61674;BME280;47573;43.832;5.974;2023-12-07T16:14:36;95174.25;;;20.82;62.36
61674;BME280;47573;43.832;5.974;2023-12-07T16:21:17;95184.81;;;21.02;62.70
61674;BME280;47573;43.832;5.974;2023-12-07T16:28:01;95204.31;;;21.11;63.29
61674;BME280;47573;43.832;5.974;2023-12-07T16:34:43;95215.88;;;21.18;63.64
61674;BME280;47573;43.832;5.974;2023-12-07T16:41:25;95209.50;;;21.24;64.17
61674;BME280;47573;43.832;5.974;2023-12-07T16:48:06;95204.22;;;21.29;64.59
61674;BME280;47573;43.832;5.974;2023-12-07T16:54:48;95222.28;;;21.35;65.05
61674;BME280;47573;43.832;5.974;2023-12-07T17:01:28;95226.78;;;21.41;65.68
61674;BME280;47573;43.832;5.974;2023-12-07T17:08:09;95229.13;;;21.49;65.56
61674;BME280;47573;43.832;5.974;2023-12-07T17:14:51;95215.69;;;21.54;66.22
61674;BME280;47573;43.832;5.974;2023-12-07T17:21:32;95210.59;;;21.57;66.63
61674;BME280;47573;43.832;5.974;2023-12-07T17:28:13;95205.03;;;21.64;66.97
61674;BME280;47573;43.832;5.974;2023-12-07T17:34:56;95222.03;;;21.71;67.24
61674;BME280;47573;43.832;5.974;2023-12-07T17:41:37;95231.03;;;21.72;67.34
61674;BME280;47573;43.832;5.974;2023-12-07T17:48:17;95232.44;;;21.74;67.98
61674;BME280;47573;43.832;5.974;2023-12-07T17:54:59;95235.28;;;21.79;68.04
61674;BME280;47573;43.832;5.974;2023-12-07T18:01:40;95216.38;;;21.84;67.64
61674;BME280;47573;43.832;5.974;2023-12-07T18:08:21;95215.94;;;21.87;68.20
61674;BME280;47573;43.832;5.974;2023-12-07T18:15:03;95223.59;;;21.90;68.36
61674;BME280;47573;43.832;5.974;2023-12-07T18:21:44;95235.41;;;21.96;68.60
61674;BME280;47573;43.832;5.974;2023-12-07T18:28:25;95233.63;;;22.01;68.43
61674;BME280;47573;43.832;5.974;2023-12-07T18:35:07;95222.75;;;22.01;69.05
61674;BME280;47573;43.832;5.974;2023-12-07T18:41:48;95220.63;;;22.03;69.22
61674;BME280;47573;43.832;5.974;2023-12-07T18:48:29;95208.78;;;22.09;68.97
61674;BME280;47573;43.832;5.974;2023-12-07T18:55:12;95216.47;;;22.12;68.94
61674;BME280;47573;43.832;5.974;2023-12-07T19:01:52;95219.88;;;22.19;69.35
61674;BME280;47573;43.832;5.974;2023-12-07T19:08:33;95222.34;;;22.21;69.74
61674;BME280;47573;43.832;5.974;2023-12-07T19:15:15;95209.94;;;22.25;69.49
61674;BME280;47573;43.832;5.974;2023-12-07T19:21:56;95214.06;;;22.27;69.88
61674;BME280;47573;43.832;5.974;2023-12-07T19:28:37;95200.06;;;22.35;68.93
61674;BME280;47573;43.832;5.974;2023-12-07T19:35:20;95209.91;;;22.36;69.42
61674;BME280;47573;43.832;5.974;2023-12-07T19:42:01;95206.19;;;22.42;69.61
61674;BME280;47573;43.832;5.974;2023-12-07T19:48:41;95210.66;;;22.49;69.38
61674;BME280;47573;43.832;5.974;2023-12-07T19:55:23;95218.38;;;22.52;69.63
61674;BME280;47573;43.832;5.974;2023-12-07T20:02:05;95217.88;;;22.55;69.69
61674;BME280;47573;43.832;5.974;2023-12-07T20:08:46;95222.84;;;22.58;69.84
61674;BME280;47573;43.832;5.974;2023-12-07T20:15:28;95215.28;;;22.60;69.91
61674;BME280;47573;43.832;5.974;2023-12-07T20:22:09;95215.38;;;22.65;69.19
61674;BME280;47573;43.832;5.974;2023-12-07T20:28:50;95207.56;;;22.68;69.82
61674;BME280;47573;43.832;5.974;2023-12-07T20:35:34;95207.06;;;22.71;69.16
61674;BME280;47573;43.832;5.974;2023-12-07T20:42:15;95196.91;;;22.67;69.88
61674;BME280;47573;43.832;5.974;2023-12-07T20:48:55;95201.16;;;22.63;71.17
61674;BME280;47573;43.832;5.974;2023-12-07T20:55:37;95202.25;;;22.62;71.78
61674;BME280;47573;43.832;5.974;2023-12-07T21:02:19;95203.31;;;22.61;72.09
61674;BME280;47573;43.832;5.974;2023-12-07T21:09:00;95214.31;;;22.66;71.53
61674;BME280;47573;43.832;5.974;2023-12-07T21:15:42;95206.72;;;22.68;71.39
61674;BME280;47573;43.832;5.974;2023-12-07T21:22:23;95190.88;;;22.65;70.95
61674;BME280;47573;43.832;5.974;2023-12-07T21:29:04;95176.22;;;22.66;70.92
61674;BME280;47573;43.832;5.974;2023-12-07T21:35:46;95161.50;;;22.67;70.70
61674;BME280;47573;43.832;5.974;2023-12-07T21:42:27;95154.53;;;22.71;69.88
61674;BME280;47573;43.832;5.974;2023-12-07T21:49:07;95167.06;;;22.72;70.00
61674;BME280;47573;43.832;5.974;2023-12-07T21:55:49;95152.97;;;22.75;69.51
61674;BME280;47573;43.832;5.974;2023-12-07T22:02:30;95154.63;;;22.76;68.71
61674;BME280;47573;43.832;5.974;2023-12-07T22:09:10;95148.69;;;22.79;68.57
61674;BME280;47573;43.832;5.974;2023-12-07T22:15:52;95136.25;;;22.83;67.80
61674;BME280;47573;43.832;5.974;2023-12-07T22:22:34;95153.63;;;22.82;68.26
61674;BME280;47573;43.832;5.974;2023-12-07T22:29:14;95159.16;;;22.87;68.49
61674;BME280;47573;43.832;5.974;2023-12-07T22:35:56;95152.63;;;22.88;68.31
61674;BME280;47573;43.832;5.974;2023-12-07T22:42:37;95153.16;;;22.85;68.01
61674;BME280;47573;43.832;5.974;2023-12-07T22:49:18;95164.84;;;22.85;68.31
61674;BME280;47573;43.832;5.974;2023-12-07T22:55:59;95148.28;;;22.87;68.04
61674;BME280;47573;43.832;5.974;2023-12-07T23:02:40;95128.66;;;22.85;68.02
61674;BME280;47573;43.832;5.974;2023-12-07T23:09:21;95120.47;;;22.85;68.23
61674;BME280;47573;43.832;5.974;2023-12-07T23:16:03;95116.09;;;22.84;68.16
61674;BME280;47573;43.832;5.974;2023-12-07T23:22:44;95102.47;;;22.84;68.21
61674;BME280;47573;43.832;5.974;2023-12-07T23:29:24;95077.41;;;22.82;68.13
61674;BME280;47573;43.832;5.974;2023-12-07T23:36:07;95055.63;;;22.82;67.81
61674;BME280;47573;43.832;5.974;2023-12-07T23:42:47;95047.19;;;22.83;68.32
61674;BME280;47573;43.832;5.974;2023-12-07T23:49:28;95035.19;;;22.63;66.06
61674;BME280;47573;43.832;5.974;2023-12-07T23:56:10;95028.91;;;22.46;65.18
